Time;durP1;ratioP1;P1;durP2;ratioP2;P2;SDS_P1;SDS_P2;PMS_P1;PMS_P2;Temp;Humidity;BMP_temperature;BMP_pressure;BME280_temperature;BME280_humidity;BME280_pressure;Samples;Min_cycle;Max_cycle;Signal;HPM_P1;HPM_P2
2022/09/16 00:02:02;;;;;;;3.23;2.73;;;20.50;99.90;;;;;;4960931;28;20236;-93
2022/09/16 00:04:27;;;;;;;3.30;3.00;;;20.50;99.90;;;;;;4961472;28;20477;-93
2022/09/16 00:06:53;;;;;;;3.10;2.60;;;20.50;99.90;;;;;;4961203;28;20194;-91
2022/09/16 00:09:19;;;;;;;3.10;2.67;;;20.50;99.90;;;;;;4961756;28;20216;-92
2022/09/16 00:11:44;;;;;;;4.17;3.07;;;20.50;99.90;;;;;;4961438;28;20625;-92
2022/09/16 00:14:10;;;;;;;4.53;2.53;;;20.50;99.90;;;;;;4961437;28;20271;-93
2022/09/16 00:16:36;;;;;;;4.60;2.83;;;20.50;99.90;;;;;;4961349;28;20280;-91
2022/09/16 00:19:02;;;;;;;4.10;2.70;;;20.50;99.90;;;;;;4978356;28;20180;-92
2022/09/16 00:21:29;;;;;;;4.57;2.67;;;20.50;99.90;;;;;;4978448;28;20187;-93
2022/09/16 00:23:55;;;;;;;8.03;2.17;;;20.50;99.90;;;;;;4970438;28;20434;-94
2022/09/16 00:26:22;;;;;;;2.67;2.30;;;20.50;99.90;;;;;;4977359;28;20411;-93
2022/09/16 00:28:48;;;;;;;3.83;2.87;;;20.50;99.90;;;;;;4964981;28;20426;-93
2022/09/16 00:31:14;;;;;;;3.80;2.80;;;20.50;99.90;;;;;;4977376;28;20486;-94
2022/09/16 00:33:40;;;;;;;3.33;2.80;;;20.50;99.90;;;;;;4960048;28;20450;-93
2022/09/16 00:36:17;;;;;;;3.47;2.47;;;20.50;99.90;;;;;;4960403;28;20453;-93
2022/09/16 00:38:43;;;;;;;2.90;2.60;;;20.50;99.90;;;;;;4977310;28;20227;-93
2022/09/16 00:41:15;;;;;;;5.07;2.63;;;20.50;99.90;;;;;;4960805;28;20441;-93
2022/09/16 00:43:52;;;;;;;3.50;3.07;;;20.50;99.90;;;;;;4960969;28;20426;-93
2022/09/16 00:46:26;;;;;;;6.17;2.30;;;20.50;99.90;;;;;;4960663;28;20810;-93
2022/09/16 00:48:52;;;;;;;5.17;2.63;;;20.40;99.90;;;;;;4978073;28;20841;-93
2022/09/16 00:51:19;;;;;;;5.70;2.67;;;20.40;99.90;;;;;;4960886;28;20892;-92
2022/09/16 00:53:59;;;;;;;4.07;2.60;;;20.40;99.90;;;;;;4961626;28;20434;-93
2022/09/16 00:56:26;;;;;;;5.00;2.43;;;20.40;99.90;;;;;;4971807;28;20498;-94
2022/09/16 00:59:14;;;;;;;3.07;2.47;;;20.40;99.90;;;;;;4960959;28;20434;-93
2022/09/16 01:01:42;;;;;;;3.80;2.77;;;20.30;99.90;;;;;;4959788;28;20510;-93
2022/09/16 01:04:25;;;;;;;5.37;3.00;;;20.30;99.90;;;;;;4959893;28;20528;-93
2022/09/16 01:06:52;;;;;;;5.63;2.63;;;20.30;99.90;;;;;;4959248;28;20514;-93
2022/09/16 01:09:20;;;;;;;4.07;3.20;;;20.30;99.90;;;;;;4960055;28;20959;-93
2022/09/16 01:11:46;;;;;;;5.93;3.00;;;20.30;99.90;;;;;;4959938;28;20525;-93
2022/09/16 01:17:48;;;;;;;5.00;3.17;;;20.30;99.90;;;;;;4978146;28;20195;-93
2022/09/16 01:20:23;;;;;;;4.10;3.17;;;20.20;99.90;;;;;;4937777;28;20537;-91
2022/09/16 01:22:54;;;;;;;3.80;2.93;;;20.20;99.90;;;;;;4959689;28;20433;-93
2022/09/16 01:25:46;;;;;;;6.03;3.00;;;20.20;99.90;;;;;;4960379;28;20540;-93
2022/09/16 01:29:09;;;;;;;3.30;2.80;;;20.20;99.90;;;;;;4960131;28;20444;-93
2022/09/16 01:32:01;;;;;;;5.57;2.93;;;20.20;99.90;;;;;;4899437;29;20549;-93
2022/09/16 01:34:48;;;;;;;4.43;2.57;;;20.20;99.90;;;;;;4899684;29;20457;-93
2022/09/16 01:37:19;;;;;;;6.93;4.60;;;20.20;99.90;;;;;;4956012;28;20525;-92
2022/09/16 01:40:28;;;;;;;3.47;2.93;;;20.20;99.90;;;;;;4963588;28;20504;-94
2022/09/16 01:43:16;;;;;;;3.73;3.07;;;20.20;99.90;;;;;;4975273;28;20483;-93
2022/09/16 01:46:00;;;;;;;4.27;2.93;;;20.20;99.90;;;;;;4966288;28;20492;-93
2022/09/16 01:48:34;;;;;;;4.87;3.40;;;20.20;99.90;;;;;;4986557;28;20429;-93
2022/09/16 01:51:38;;;;;;;6.40;3.23;;;20.20;99.90;;;;;;4976253;28;20519;-93
2022/09/16 01:54:11;;;;;;;3.83;2.97;;;20.20;99.90;;;;;;4908349;28;20484;-93
2022/09/16 01:57:04;;;;;;;6.77;3.60;;;20.20;99.90;;;;;;4959364;28;20465;-93
2022/09/16 01:59:30;;;;;;;3.60;3.00;;;20.20;99.90;;;;;;4959668;28;20454;-93
2022/09/16 02:02:21;;;;;;;5.13;3.47;;;20.20;99.90;;;;;;4976209;28;20974;-93
2022/09/16 02:04:50;;;;;;;4.63;3.53;;;20.20;99.90;;;;;;4960255;28;20200;-93
2022/09/16 02:07:20;;;;;;;3.80;3.20;;;20.20;99.90;;;;;;4960688;28;20429;-92
2022/09/16 02:09:54;;;;;;;3.63;3.00;;;20.20;99.90;;;;;;4980188;28;20480;-92
2022/09/16 02:12:25;;;;;;;5.00;3.20;;;20.10;99.90;;;;;;4980601;28;20981;-93
2022/09/16 02:14:55;;;;;;;4.03;3.20;;;20.10;99.90;;;;;;4963766;28;20452;-93
2022/09/16 02:17:24;;;;;;;4.30;3.30;;;20.10;99.90;;;;;;4967360;28;20474;-93
2022/09/16 02:20:05;;;;;;;4.00;3.10;;;20.10;99.90;;;;;;4967766;28;20477;-93
2022/09/16 02:22:36;;;;;;;5.80;3.43;;;20.10;99.90;;;;;;4962504;28;20840;-94
2022/09/16 02:25:04;;;;;;;5.10;4.17;;;20.10;99.90;;;;;;4962540;28;20533;-94
2022/09/16 02:27:31;;;;;;;9.23;4.27;;;20.10;99.90;;;;;;4962046;28;20454;-93
2022/09/16 02:30:09;;;;;;;7.30;4.60;;;20.10;99.90;;;;;;4979148;28;20441;-93
2022/09/16 02:32:39;;;;;;;4.37;3.97;;;20.00;99.90;;;;;;4962287;28;20470;-93
2022/09/16 02:35:08;;;;;;;6.60;4.60;;;20.00;99.90;;;;;;4979330;28;20469;-93
2022/09/16 02:37:41;;;;;;;4.90;4.30;;;20.00;99.90;;;;;;4963326;28;20421;-92
2022/09/16 02:40:24;;;;;;;6.63;4.10;;;20.00;99.90;;;;;;4983352;28;20575;-93
2022/09/16 02:42:50;;;;;;;4.30;3.90;;;20.00;99.90;;;;;;4963261;28;20426;-93
2022/09/16 02:45:15;;;;;;;6.40;4.73;;;20.00;99.90;;;;;;4982610;28;20516;-92
2022/09/16 02:47:55;;;;;;;6.17;4.50;;;19.90;99.90;;;;;;4962710;28;20421;-93
2022/09/16 02:50:23;;;;;;;4.30;3.90;;;19.90;99.90;;;;;;4979632;28;20203;-92
2022/09/16 02:53:00;;;;;;;5.77;4.50;;;19.90;99.90;;;;;;4979847;28;20465;-93
2022/09/16 02:55:57;;;;;;;5.70;4.37;;;19.90;99.90;;;;;;4962222;28;20444;-93
2022/09/16 02:58:23;;;;;;;4.57;4.17;;;19.90;99.90;;;;;;4948593;28;20454;-93
2022/09/16 03:00:52;;;;;;;5.37;4.07;;;20.00;99.90;;;;;;4962611;28;20959;-93
2022/09/16 03:03:18;;;;;;;6.50;4.90;;;20.00;99.90;;;;;;4961755;28;20294;-93
2022/09/16 03:06:18;;;;;;;5.83;4.30;;;20.00;99.90;;;;;;4961633;28;20461;-93
2022/09/16 03:08:45;;;;;;;3.87;3.53;;;20.00;99.90;;;;;;4979202;28;20464;-93
2022/09/16 03:11:36;;;;;;;7.73;4.30;;;20.10;99.90;;;;;;4961706;28;20472;-93
2022/09/16 03:14:04;;;;;;;5.90;4.47;;;20.10;99.90;;;;;;4961622;28;20460;-94
2022/09/16 03:16:37;;;;;;;7.70;4.47;;;20.10;99.90;;;;;;4962156;28;20456;-92
2022/09/16 03:19:25;;;;;;;11.90;4.67;;;20.20;99.90;;;;;;4961709;28;20517;-93
2022/09/16 03:21:55;;;;;;;4.87;4.17;;;20.20;99.90;;;;;;4961536;28;20434;-93
2022/09/16 03:24:46;;;;;;;5.20;4.20;;;20.20;99.90;;;;;;4978891;28;20593;-93
2022/09/16 03:27:22;;;;;;;7.23;5.27;;;20.20;99.90;;;;;;4978325;28;20453;-93
2022/09/16 03:29:56;;;;;;;3.70;3.30;;;20.30;99.90;;;;;;4968266;28;20548;-93
2022/09/16 03:32:26;;;;;;;4.90;4.13;;;20.30;99.90;;;;;;4964221;28;20465;-93
2022/09/16 03:35:07;;;;;;;5.90;3.83;;;20.30;99.90;;;;;;4962359;28;20524;-93
2022/09/16 03:37:34;;;;;;;5.73;4.47;;;20.30;99.90;;;;;;4961608;28;20414;-93
2022/09/16 03:40:07;;;;;;;4.67;4.13;;;20.40;99.90;;;;;;4979194;28;20478;-93
2022/09/16 03:42:32;;;;;;;4.27;3.87;;;20.40;99.90;;;;;;4962044;28;20406;-93
2022/09/16 03:44:58;;;;;;;4.40;3.57;;;20.40;99.90;;;;;;4961600;28;20442;-93
2022/09/16 03:47:24;;;;;;;5.70;3.40;;;20.40;99.90;;;;;;4961659;28;20180;-94
2022/09/16 03:49:50;;;;;;;6.40;4.30;;;20.40;99.90;;;;;;4962123;28;20239;-94
2022/09/16 03:52:17;;;;;;;4.93;4.10;;;20.40;99.90;;;;;;4978671;28;20204;-93
2022/09/16 03:54:43;;;;;;;5.47;4.40;;;20.40;99.90;;;;;;4961559;28;20983;-93
2022/09/16 03:57:09;;;;;;;4.80;4.00;;;20.50;99.90;;;;;;4978709;28;20402;-94
2022/09/16 03:59:35;;;;;;;4.00;3.60;;;20.50;99.90;;;;;;4978950;28;20279;-93
2022/09/16 04:02:01;;;;;;;4.00;3.70;;;20.50;99.90;;;;;;4961462;28;20901;-93
2022/09/16 04:04:26;;;;;;;4.40;3.83;;;20.60;99.90;;;;;;4979070;28;20192;-93
2022/09/16 04:06:52;;;;;;;4.17;3.70;;;20.60;99.90;;;;;;4984339;28;20187;-93
2022/09/16 04:09:17;;;;;;;5.37;4.03;;;20.60;99.90;;;;;;4962188;28;20221;-94
2022/09/16 04:11:43;;;;;;;4.17;3.60;;;20.60;99.90;;;;;;4960639;28;20216;-93
2022/09/16 04:14:09;;;;;;;4.70;3.93;;;20.60;99.90;;;;;;4947179;29;20749;-94
2022/09/16 04:16:35;;;;;;;5.03;4.23;;;20.60;99.90;;;;;;4940889;29;20725;-92
2022/09/16 04:19:01;;;;;;;4.67;3.80;;;20.60;99.90;;;;;;4941056;29;20435;-93
2022/09/16 04:21:28;;;;;;;4.60;4.17;;;20.60;99.90;;;;;;4942459;29;20217;-93
2022/09/16 04:23:53;;;;;;;3.83;3.33;;;20.60;99.90;;;;;;4941110;28;20204;-93
2022/09/16 04:26:20;;;;;;;4.67;4.10;;;20.60;99.90;;;;;;4940554;29;20435;-93
2022/09/16 04:28:46;;;;;;;5.57;4.00;;;20.60;99.90;;;;;;4939239;28;20184;-94
2022/09/16 04:31:14;;;;;;;4.70;3.23;;;20.60;99.90;;;;;;4939250;29;20463;-94
2022/09/16 04:33:40;;;;;;;7.13;3.40;;;20.60;99.90;;;;;;4937467;28;20485;-90
2022/09/16 04:36:13;;;;;;;4.00;3.00;;;20.50;99.90;;;;;;4942329;29;20463;-95
2022/09/16 04:38:41;;;;;;;4.80;3.90;;;20.50;99.90;;;;;;4941557;28;20633;-93
2022/09/16 04:41:10;;;;;;;4.33;3.53;;;20.40;99.90;;;;;;4959037;28;20483;-88
2022/09/16 04:43:36;;;;;;;4.30;2.90;;;20.50;99.90;;;;;;4958907;29;20486;-92
2022/09/16 04:46:02;;;;;;;9.83;2.70;;;20.50;99.90;;;;;;4957743;29;20537;-96
2022/09/16 04:48:29;;;;;;;4.73;3.20;;;20.50;99.90;;;;;;4942196;29;20639;-92
2022/09/16 04:51:05;;;;;;;4.63;3.20;;;20.50;99.90;;;;;;4957265;28;20475;-88
2022/09/16 04:53:32;;;;;;;3.40;3.10;;;20.50;99.90;;;;;;4944862;28;20446;-94
2022/09/16 04:56:04;;;;;;;4.03;3.10;;;20.50;99.90;;;;;;4942729;29;20511;-92
2022/09/16 04:58:29;;;;;;;4.77;3.23;;;20.60;99.90;;;;;;4957486;29;20486;-93
2022/09/16 05:00:55;;;;;;;5.63;3.20;;;20.60;99.90;;;;;;4958850;29;20444;-90
2022/09/16 05:03:21;;;;;;;3.60;3.30;;;20.60;99.90;;;;;;4941406;28;20185;-93
2022/09/16 05:05:46;;;;;;;5.60;3.40;;;20.60;99.90;;;;;;4976944;28;20223;-90
2022/09/16 05:08:12;;;;;;;4.97;3.50;;;20.60;99.90;;;;;;4960284;28;20176;-93
2022/09/16 05:10:37;;;;;;;4.03;3.30;;;20.60;99.90;;;;;;4963031;28;20295;-94
2022/09/16 05:13:03;;;;;;;3.53;3.13;;;20.60;99.90;;;;;;4942016;28;20185;-93
2022/09/16 05:15:29;;;;;;;6.90;3.10;;;20.60;99.90;;;;;;4979770;28;20737;-90
2022/09/16 05:17:54;;;;;;;624.43;358.97;;;20.60;99.90;;;;;;4952346;28;20283;-94
2022/09/16 05:20:20;;;;;;;9.77;6.30;;;20.70;99.90;;;;;;4950769;28;20205;-94
2022/09/16 05:22:49;;;;;;;5.80;5.00;;;20.70;99.90;;;;;;4952717;29;20203;-92
2022/09/16 05:25:15;;;;;;;8.60;4.40;;;20.70;99.90;;;;;;4940326;29;20213;-94
2022/09/16 05:27:41;;;;;;;4.60;3.37;;;20.70;99.90;;;;;;4954163;28;20611;-90
2022/09/16 05:30:07;;;;;;;3.90;3.50;;;20.70;99.90;;;;;;4937456;28;20216;-94
2022/09/16 05:32:32;;;;;;;8.67;3.70;;;20.70;99.90;;;;;;4939968;28;20212;-94
2022/09/16 05:34:58;;;;;;;4.23;3.83;;;20.70;99.90;;;;;;4960440;28;20551;-90
2022/09/16 05:37:27;;;;;;;5.90;4.10;;;20.70;99.90;;;;;;4951584;28;20197;-94
2022/09/16 05:39:53;;;;;;;4.17;3.57;;;20.70;99.90;;;;;;4955099;28;20264;-93
2022/09/16 05:42:18;;;;;;;3.93;3.53;;;20.70;99.90;;;;;;4972200;28;20445;-93
2022/09/16 05:44:44;;;;;;;7.13;4.07;;;20.70;99.90;;;;;;4974861;28;20291;-93
2022/09/16 05:47:09;;;;;;;4.20;3.80;;;20.70;99.90;;;;;;4958703;28;20184;-90
2022/09/16 05:49:35;;;;;;;4.83;3.87;;;20.70;99.90;;;;;;4959709;28;20204;-93
2022/09/16 05:52:02;;;;;;;4.63;3.73;;;20.70;99.90;;;;;;4955511;28;20226;-93
2022/09/16 05:54:28;;;;;;;5.30;4.17;;;20.70;99.90;;;;;;4972870;28;20481;-90
2022/09/16 05:56:53;;;;;;;5.70;4.43;;;20.70;99.90;;;;;;4958035;28;20446;-91
2022/09/16 05:59:19;;;;;;;4.67;3.90;;;20.70;99.90;;;;;;4973916;28;20203;-90
2022/09/16 06:01:45;;;;;;;4.80;4.30;;;20.70;99.90;;;;;;4973840;28;20195;-91
2022/09/16 06:04:13;;;;;;;5.97;4.07;;;20.70;99.90;;;;;;4956152;29;20533;-91
2022/09/16 06:06:43;;;;;;;7.40;4.13;;;20.70;99.90;;;;;;4949474;28;20457;-90
2022/09/16 06:09:15;;;;;;;4.53;4.13;;;20.70;99.90;;;;;;4962805;28;20509;-90
2022/09/16 06:11:47;;;;;;;7.07;4.83;;;20.70;99.90;;;;;;4957349;28;20643;-94
2022/09/16 06:14:13;;;;;;;6.53;4.43;;;20.70;99.90;;;;;;4956314;28;20453;-93
2022/09/16 06:16:39;;;;;;;6.10;4.40;;;20.80;99.90;;;;;;4972842;28;20779;-94
2022/09/16 06:19:09;;;;;;;5.97;4.63;;;20.80;99.90;;;;;;4955734;28;21074;-89
2022/09/16 06:21:36;;;;;;;6.90;5.40;;;20.80;99.90;;;;;;4967132;28;20422;-91
2022/09/16 06:24:02;;;;;;;7.33;4.57;;;20.70;99.90;;;;;;4985515;28;20460;-90
2022/09/16 06:26:28;;;;;;;5.70;5.10;;;20.80;99.90;;;;;;4971490;28;20431;-89
2022/09/16 06:28:54;;;;;;;5.50;4.60;;;20.80;99.90;;;;;;4955280;28;20989;-90
2022/09/16 06:31:23;;;;;;;7.97;4.83;;;20.80;99.90;;;;;;4961476;28;20228;-90
2022/09/16 06:33:50;;;;;;;1999.90;887.60;;;20.80;99.90;;;;;;4961104;28;20442;-90
2022/09/16 06:36:21;;;;;;;11.17;8.13;;;20.80;99.90;;;;;;4956224;28;20418;-93
2022/09/16 06:38:48;;;;;;;14.90;8.50;;;20.80;99.90;;;;;;4954073;28;20466;-90
2022/09/16 06:41:15;;;;;;;6.70;5.30;;;20.80;99.90;;;;;;4964132;28;20434;-92
2022/09/16 06:43:41;;;;;;;7.00;4.90;;;20.80;99.90;;;;;;4959977;28;20497;-90
2022/09/16 06:46:14;;;;;;;6.10;4.67;;;20.80;99.90;;;;;;4971345;28;20449;-90
2022/09/16 06:48:42;;;;;;;8.60;4.27;;;20.80;99.90;;;;;;4953460;28;20434;-93
2022/09/16 06:51:13;;;;;;;5.00;4.50;;;20.80;99.90;;;;;;4967595;28;20819;-90
2022/09/16 06:53:39;;;;;;;5.20;4.40;;;20.80;99.90;;;;;;4953852;28;20427;-94
2022/09/16 06:56:11;;;;;;;5.03;4.27;;;20.80;99.90;;;;;;4971708;28;20505;-93
2022/09/16 06:58:38;;;;;;;5.93;5.03;;;20.80;99.90;;;;;;4948101;28;20454;-91
2022/09/16 07:01:16;;;;;;;8.30;4.90;;;20.80;99.90;;;;;;4959469;28;20446;-90
2022/09/16 07:03:44;;;;;;;5.43;4.90;;;20.80;99.90;;;;;;4956360;28;20438;-93
2022/09/16 07:06:12;;;;;;;6.07;5.37;;;20.80;99.90;;;;;;4973413;28;20418;-90
2022/09/16 07:08:39;;;;;;;5.30;4.80;;;20.80;99.90;;;;;;4960963;28;20808;-90
2022/09/16 07:11:11;;;;;;;5.43;4.47;;;20.80;99.90;;;;;;4968018;28;20485;-92
2022/09/16 07:13:37;;;;;;;4.90;4.40;;;20.80;99.90;;;;;;4952272;28;20461;-92
2022/09/16 07:16:04;;;;;;;5.17;4.30;;;20.80;99.90;;;;;;4972486;28;20951;-92
2022/09/16 07:18:31;;;;;;;5.20;4.70;;;20.70;99.90;;;;;;4953332;28;20176;-93
2022/09/16 07:21:08;;;;;;;7.27;4.93;;;20.80;99.90;;;;;;4957975;28;20446;-94
2022/09/16 07:23:35;;;;;;;9.33;5.30;;;20.70;99.90;;;;;;4959467;28;20607;-90
2022/09/16 07:26:07;;;;;;;7.83;5.30;;;20.80;99.90;;;;;;4953944;29;20439;-93
2022/09/16 07:28:34;;;;;;;5.30;4.80;;;20.70;99.90;;;;;;4961634;28;20446;-93
2022/09/16 07:31:01;;;;;;;7.90;4.80;;;20.70;99.90;;;;;;4961036;28;20501;-94
2022/09/16 07:33:27;;;;;;;5.93;5.20;;;20.70;99.90;;;;;;4964356;28;20438;-90
2022/09/16 07:35:56;;;;;;;6.43;4.83;;;20.70;99.90;;;;;;4960750;28;20465;-92
2022/09/16 07:38:21;;;;;;;5.40;4.23;;;20.60;99.90;;;;;;4957509;28;20472;-93
2022/09/16 07:40:47;;;;;;;6.90;4.60;;;20.60;99.90;;;;;;4956533;28;20447;-90
2022/09/16 07:43:12;;;;;;;6.17;5.13;;;20.60;99.90;;;;;;4960778;28;20339;-90
2022/09/16 07:45:38;;;;;;;5.50;5.00;;;20.60;99.90;;;;;;4965880;28;20213;-91
2022/09/16 07:48:04;;;;;;;7.33;4.93;;;20.60;99.90;;;;;;4962027;28;20667;-90
2022/09/16 07:50:29;;;;;;;6.70;5.20;;;20.60;99.90;;;;;;4976547;28;20208;-90
2022/09/16 07:52:55;;;;;;;5.63;4.57;;;20.60;99.90;;;;;;4987434;28;20217;-93
2022/09/16 07:55:21;;;;;;;7.80;5.10;;;20.50;99.90;;;;;;4973061;28;20292;-90
2022/09/16 07:57:46;;;;;;;6.90;6.00;;;20.50;99.90;;;;;;4972064;28;20428;-90
2022/09/16 08:00:15;;;;;;;6.03;5.20;;;20.50;99.90;;;;;;4957697;28;20262;-90
2022/09/16 08:02:40;;;;;;;7.50;4.87;;;20.40;99.90;;;;;;4960363;28;20273;-90
2022/09/16 08:05:07;;;;;;;7.33;5.20;;;20.40;99.90;;;;;;4959717;28;20478;-93
2022/09/16 08:07:33;;;;;;;5.33;4.80;;;20.40;99.90;;;;;;4964275;28;20533;-90
2022/09/16 08:09:58;;;;;;;6.60;4.50;;;20.30;99.90;;;;;;4959359;28;20485;-93
2022/09/16 08:12:24;;;;;;;5.17;4.67;;;20.30;99.90;;;;;;4978039;28;20212;-90
2022/09/16 08:14:50;;;;;;;5.50;4.83;;;20.30;99.90;;;;;;4959670;28;20208;-90
2022/09/16 08:17:15;;;;;;;5.20;4.23;;;20.30;99.90;;;;;;4960273;28;20205;-90
2022/09/16 08:19:41;;;;;;;6.90;4.13;;;20.30;99.90;;;;;;4959203;28;20193;-92
2022/09/16 08:22:07;;;;;;;5.17;4.50;;;20.30;99.90;;;;;;4958886;28;20291;-90
2022/09/16 08:24:33;;;;;;;4.97;4.30;;;20.30;99.90;;;;;;4979326;28;20196;-90
2022/09/16 08:26:58;;;;;;;6.63;5.13;;;20.30;99.90;;;;;;4956065;28;20218;-94
2022/09/16 08:29:24;;;;;;;5.13;4.50;;;20.40;99.90;;;;;;4956996;28;20204;-93
2022/09/16 08:31:50;;;;;;;6.73;4.57;;;20.40;99.90;;;;;;4974094;28;20234;-92
2022/09/16 08:34:16;;;;;;;6.23;4.60;;;20.40;99.90;;;;;;4957236;28;20458;-92
2022/09/16 08:36:42;;;;;;;4.83;4.33;;;20.40;99.90;;;;;;4954480;28;20470;-93
2022/09/16 08:39:09;;;;;;;8.00;3.90;;;20.50;99.90;;;;;;4953840;28;20287;-89
2022/09/16 08:42:03;;;;;;;4.80;4.40;;;20.50;99.90;;;;;;4976469;28;20180;-90
2022/09/16 08:44:44;;;;;;;4.87;4.23;;;20.60;99.90;;;;;;4973517;28;20464;-94
2022/09/16 08:47:29;;;;;;;6.20;4.73;;;20.80;99.90;;;;;;4960139;28;20744;-93
2022/09/16 08:49:57;;;;;;;4.57;3.60;;;21.00;99.90;;;;;;4977944;28;20457;-93
2022/09/16 08:52:36;;;;;;;6.20;4.00;;;21.10;99.90;;;;;;4963124;28;20470;-90
2022/09/16 08:55:09;;;;;;;4.83;4.07;;;21.20;99.90;;;;;;4982417;28;20444;-89
2022/09/16 08:57:40;;;;;;;4.30;3.90;;;21.30;99.90;;;;;;4978151;28;20430;-90
2022/09/16 09:00:15;;;;;;;3.77;3.40;;;21.40;99.90;;;;;;4962052;28;20446;-93
2022/09/16 09:02:54;;;;;;;4.30;3.90;;;21.50;99.90;;;;;;4947745;28;20437;-90
2022/09/16 09:05:46;;;;;;;3.60;3.10;;;21.50;99.90;;;;;;4954796;28;20867;-89
2022/09/16 09:09:02;;;;;;;4.83;3.70;;;21.60;99.90;;;;;;4949667;28;20463;-89
2022/09/16 09:11:53;;;;;;;6.73;4.63;;;21.60;99.90;;;;;;4960114;28;20478;-89
2022/09/16 09:14:18;;;;;;;4.03;3.63;;;21.60;99.90;;;;;;4946467;28;20459;-93
2022/09/16 09:16:55;;;;;;;4.83;3.90;;;21.60;99.90;;;;;;4964766;28;20439;-89
2022/09/16 09:20:00;;;;;;;4.97;3.50;;;21.60;99.90;;;;;;4944188;28;20669;-93
2022/09/16 09:22:37;;;;;;;4.90;4.07;;;21.50;99.90;;;;;;4990604;28;20485;-89
2022/09/16 09:25:24;;;;;;;4.40;3.87;;;21.50;99.90;;;;;;4980296;28;20994;-94
2022/09/16 09:27:59;;;;;;;5.50;3.37;;;21.50;99.90;;;;;;4976427;28;20444;-93
2022/09/16 09:30:26;;;;;;;4.30;3.90;;;21.40;99.90;;;;;;4986264;28;20540;-93
2022/09/16 09:33:10;;;;;;;4.77;3.83;;;21.40;99.90;;;;;;4979821;28;20493;-93
2022/09/16 09:36:03;;;;;;;5.97;4.60;;;21.40;99.90;;;;;;4991985;28;20569;-89
2022/09/16 09:39:05;;;;;;;5.90;4.53;;;21.40;99.90;;;;;;4989396;28;20683;-89
2022/09/16 09:41:54;;;;;;;4.50;4.10;;;21.40;99.90;;;;;;4978137;28;20515;-94
2022/09/16 09:44:25;;;;;;;12.03;5.30;;;21.40;99.90;;;;;;4992575;28;20847;-93
2022/09/16 09:47:14;;;;;;;4.87;4.30;;;21.40;99.90;;;;;;4970842;28;20548;-89
2022/09/16 09:50:09;;;;;;;5.00;4.50;;;21.40;99.90;;;;;;4975610;28;20469;-90
2022/09/16 09:52:46;;;;;;;5.87;3.70;;;21.40;99.90;;;;;;4994953;28;20476;-89
2022/09/16 09:55:24;;;;;;;5.93;4.53;;;21.40;99.90;;;;;;4972902;28;20476;-93
2022/09/16 09:58:33;;;;;;;6.63;4.00;;;21.30;99.90;;;;;;4971942;28;20421;-94
2022/09/16 10:01:03;;;;;;;5.83;5.23;;;21.30;99.90;;;;;;4895935;29;20475;-92
2022/09/16 10:03:30;;;;;;;5.30;4.33;;;21.30;99.90;;;;;;4984925;28;20441;-94
2022/09/16 10:05:57;;;;;;;6.10;4.27;;;21.30;99.90;;;;;;4981894;28;20510;-89
2022/09/16 10:08:25;;;;;;;5.93;5.20;;;21.20;99.90;;;;;;4984254;28;20425;-91
2022/09/16 10:10:56;;;;;;;5.53;4.93;;;21.20;99.90;;;;;;5005628;28;20473;-93
2022/09/16 10:13:24;;;;;;;5.90;4.93;;;21.20;99.90;;;;;;5002578;28;20424;-94
2022/09/16 10:16:05;;;;;;;6.83;5.30;;;21.20;99.90;;;;;;4970552;28;20465;-93
2022/09/16 10:18:32;;;;;;;5.83;4.53;;;21.20;99.90;;;;;;4972853;28;20418;-94
2022/09/16 10:21:13;;;;;;;5.90;4.90;;;21.20;99.90;;;;;;4973968;28;20471;-89
2022/09/16 10:23:42;;;;;;;6.53;5.03;;;21.20;99.90;;;;;;4990386;28;20525;-93
2022/09/16 10:26:20;;;;;;;6.67;4.40;;;21.20;99.90;;;;;;4972845;28;20453;-88
2022/09/16 10:29:01;;;;;;;4.90;4.40;;;21.10;99.90;;;;;;4990309;28;20447;-90
2022/09/16 10:31:35;;;;;;;894.63;503.20;;;21.10;99.90;;;;;;4995696;28;20574;-90
2022/09/16 10:34:04;;;;;;;51.20;32.13;;;21.10;99.90;;;;;;4976979;28;20437;-90
2022/09/16 10:36:33;;;;;;;15.57;10.23;;;21.10;99.90;;;;;;4980871;28;20486;-90
2022/09/16 10:39:01;;;;;;;6.60;5.30;;;21.10;99.90;;;;;;4983545;28;20465;-92
2022/09/16 10:41:49;;;;;;;9.43;5.40;;;21.10;99.90;;;;;;4987982;28;20491;-90
2022/09/16 10:44:25;;;;;;;9.47;5.63;;;21.10;99.90;;;;;;4974849;28;20476;-90
2022/09/16 10:47:01;;;;;;;5.17;4.67;;;21.10;99.90;;;;;;4980551;28;20441;-94
2022/09/16 10:49:43;;;;;;;4.97;4.47;;;21.10;99.90;;;;;;4989268;28;20515;-90
2022/09/16 10:52:25;;;;;;;4.93;4.43;;;21.10;99.90;;;;;;4993791;28;20532;-90
2022/09/16 10:54:51;;;;;;;7.03;5.53;;;21.10;99.90;;;;;;4978231;28;20472;-90
2022/09/16 10:57:31;;;;;;;8.40;5.73;;;21.10;99.90;;;;;;4995525;28;20935;-93
2022/09/16 11:00:34;;;;;;;7.13;5.60;;;21.10;99.90;;;;;;4986433;28;20448;-93
2022/09/16 11:03:20;;;;;;;6.37;5.23;;;21.10;99.90;;;;;;4879196;29;21035;-94
2022/09/16 11:06:04;;;;;;;6.13;5.17;;;21.10;99.90;;;;;;4971183;28;20464;-94
2022/09/16 11:09:00;;;;;;;5.40;4.90;;;21.10;99.90;;;;;;4978933;28;20440;-93
2022/09/16 11:11:38;;;;;;;7.97;5.47;;;21.00;99.90;;;;;;4981514;28;20491;-89
2022/09/16 11:14:09;;;;;;;6.40;5.53;;;21.00;99.90;;;;;;4999852;28;20439;-89
2022/09/16 11:17:10;;;;;;;6.10;4.90;;;21.00;99.90;;;;;;4974416;28;20441;-90
2022/09/16 11:19:54;;;;;;;5.30;4.80;;;21.00;99.90;;;;;;4979153;28;20540;-94
2022/09/16 11:22:31;;;;;;;6.63;5.23;;;21.00;99.90;;;;;;4993638;28;20692;-89
2022/09/16 11:25:45;;;;;;;5.40;4.90;;;21.00;99.90;;;;;;4979019;28;20849;-90
2022/09/16 11:28:13;;;;;;;5.33;4.67;;;21.00;99.90;;;;;;4907026;29;20437;-94
2022/09/16 11:30:48;;;;;;;5.23;4.53;;;21.00;99.90;;;;;;4909850;29;20525;-89
2022/09/16 11:33:37;;;;;;;4.47;3.93;;;21.00;99.90;;;;;;4958729;28;20452;-90
2022/09/16 11:36:12;;;;;;;4.60;4.20;;;21.00;99.90;;;;;;4971517;28;21574;-94
2022/09/16 11:39:16;;;;;;;5.73;5.17;;;21.00;99.90;;;;;;4991145;28;20587;-90
2022/09/16 11:41:48;;;;;;;5.00;4.13;;;21.00;99.90;;;;;;4940570;28;20459;-93
2022/09/16 11:44:26;;;;;;;5.30;4.67;;;21.00;99.90;;;;;;4968853;28;20540;-90
2022/09/16 11:47:07;;;;;;;6.40;4.87;;;21.00;99.90;;;;;;4966255;28;20480;-94
2022/09/16 11:49:39;;;;;;;4.43;4.00;;;21.00;99.90;;;;;;4972455;28;20789;-94
2022/09/16 11:52:28;;;;;;;7.67;4.50;;;21.00;99.90;;;;;;4977224;28;20499;-93
2022/09/16 11:55:13;;;;;;;7.43;4.97;;;21.10;99.90;;;;;;4971723;28;20481;-90
2022/09/16 11:57:42;;;;;;;6.73;3.80;;;21.10;99.90;;;;;;4970896;28;20544;-93
2022/09/16 12:00:18;;;;;;;5.13;4.63;;;21.10;99.90;;;;;;4973320;28;20458;-94
2022/09/16 12:03:11;;;;;;;6.03;4.50;;;21.10;99.90;;;;;;4989368;28;20448;-90
2022/09/16 12:05:44;;;;;;;5.77;5.17;;;21.10;99.90;;;;;;4994959;28;20524;-94
2022/09/16 12:08:39;;;;;;;4.27;3.87;;;21.10;99.90;;;;;;4975299;28;20437;-90
2022/09/16 12:11:31;;;;;;;5.13;4.30;;;21.20;99.90;;;;;;4974076;28;20456;-90
2022/09/16 12:14:07;;;;;;;6.30;4.70;;;21.10;99.90;;;;;;4972130;28;20500;-93
2022/09/16 12:16:51;;;;;;;7.23;5.30;;;21.10;99.90;;;;;;4967039;28;20556;-90
2022/09/16 12:19:34;;;;;;;6.03;4.97;;;21.10;99.90;;;;;;4989945;28;20455;-91
2022/09/16 12:22:15;;;;;;;5.73;4.60;;;21.10;99.90;;;;;;4994818;28;20888;-90
2022/09/16 12:25:09;;;;;;;5.10;4.60;;;21.10;99.90;;;;;;4991184;28;20460;-92
2022/09/16 12:27:57;;;;;;;5.73;5.13;;;21.10;99.90;;;;;;4950589;28;20442;-91
2022/09/16 12:30:28;;;;;;;6.60;5.67;;;21.10;99.90;;;;;;4978622;28;20461;-91
2022/09/16 12:33:17;;;;;;;6.10;5.33;;;21.10;99.90;;;;;;4994066;28;20994;-94
2022/09/16 12:36:12;;;;;;;5.83;4.77;;;21.10;99.90;;;;;;4986045;28;20533;-91
2022/09/16 12:38:39;;;;;;;5.90;5.30;;;21.10;99.90;;;;;;4993661;28;20821;-93
2022/09/16 12:41:36;;;;;;;5.63;4.90;;;21.10;99.90;;;;;;4981153;28;20453;-92
2022/09/16 12:44:36;;;;;;;6.77;4.80;;;21.00;99.90;;;;;;4971994;28;20437;-94
2022/09/16 12:47:17;;;;;;;6.83;5.10;;;21.10;99.90;;;;;;4958026;28;20426;-91
2022/09/16 12:49:52;;;;;;;4.80;4.30;;;21.10;99.90;;;;;;4988099;28;20430;-91
2022/09/16 12:52:40;;;;;;;6.43;4.70;;;21.10;99.90;;;;;;4988134;28;20590;-94
2022/09/16 12:55:38;;;;;;;6.40;4.80;;;21.10;99.90;;;;;;4999988;28;20456;-96
2022/09/16 12:58:22;;;;;;;5.80;4.63;;;21.10;99.90;;;;;;4923829;28;20437;-92
2022/09/16 13:01:14;;;;;;;6.70;4.93;;;21.10;99.90;;;;;;5005724;28;20773;-93
2022/09/16 13:03:55;;;;;;;5.90;5.30;;;21.10;99.90;;;;;;4987521;28;20416;-93
2022/09/16 13:06:27;;;;;;;5.37;4.83;;;21.00;99.90;;;;;;4982325;28;20913;-95
2022/09/16 13:08:54;;;;;;;5.00;4.33;;;21.00;99.90;;;;;;4985513;28;20413;-93
2022/09/16 13:11:25;;;;;;;7.67;5.27;;;21.00;99.90;;;;;;4978860;28;20568;-93
2022/09/16 13:13:56;;;;;;;6.20;4.80;;;21.00;99.90;;;;;;4979627;28;20414;-91
2022/09/16 13:16:34;;;;;;;5.47;4.40;;;21.00;99.90;;;;;;4995708;28;20429;-96
2022/09/16 13:19:43;;;;;;;6.53;4.80;;;21.00;99.90;;;;;;4989603;28;20437;-96
2022/09/16 13:22:23;;;;;;;6.70;4.80;;;21.00;99.90;;;;;;4987618;28;20476;-94
2022/09/16 13:25:43;;;;;;;7.33;5.07;;;21.00;99.90;;;;;;4976477;28;20461;-91